Ana Sayfa
METAR-TAF:

METAR-TAF

Havaalanları :

Fairbanks, Alaska, Amerika Birleşik Devletleri

Enlem: 64-48-14N, Boylam: 147-52-34W, yükseklik: 132 m

Güncel hava durumu gözlemi

Rapor saat 03:53 UTC de 1 saat ve 7 dakika önce yapıldı.
Sakin rüzgar
Sıcaklık 13°C
Nem 33%
Basınç 1009 hPa
Görüş mesafesi: 16.1 km
7500 ft yükseklikte parçalı bulutlu
9000 ft yükseklikte parçalı çok bulutlu

METAR: PAFA 240353Z 00000KT 10SM SCT075 BKN090 13/M03 A2981 RMK AO2 SLP102 VIRGA T01281028

Saat: 21:00 (05:00 UTC)

Tahmin

Rapor saat 23:46 UTC de 5 saat ve 14 dakika önce yapıldı.
Ayın 24'si saat 00 UTC'den ayın 25'si saat 06 UTC'ye kadar geçerli Tahmin
Rüzgar güneybatıdan 5 kt
Görüş mesafesi: 10 km
7000 ft yükseklikte parçalı çok bulutlu
Civarda sağanaklar
Ayın 24'si saat 0500 UTC'den
Rüzgar kuzey/kuzeydoğudan 4 kt
Görüş mesafesi: 10 km
7000 ft yükseklikte parçalı bulutlu

TAF: PAFA 232346Z 2400/2506 22005KT P6SM VCSH BKN070 FM240500 02004KT P6SM SCT070

4.000'den fazla havaalanı için hava durumu gözlemleri ve tahminleri (METAR ve TAF raporları).

Kullanılabilir istasyonlar harita üzerinde sarı ve kırmızı noktalarla gösterilir.

İstasyonun adını görmek için fareyi noktanın üzerinde gezdirin.

Sonrasında hava gözlem ve tahminlerini görmek için tıklayın.

Haritayı değiştirmek için: yaklaştırmak için siyah artı işaretli yeşil düğmeye ve uzaklaştırmak için de eksi işaretli düğmeye hızla tıklayın; bitişik haritalar için yeşil okları kullanın.


METAR-TAF: